Flight Track Log - Related Links

Times and Time Zones

All times are in EDT time to prevent confusion due to time zone crossing. See the N20EW flight status page for this flight to view local times or setup timezone preferences in your user account.

Time Position Orientation Groundspeed Altitude Reporting Facility
EDT Latitude Longitude Course Direction KTS MPH feet Rate Location/Type
Wed 04:13:06 PM 37.2606 -81.1603 190° South 179 206 6,000  Level Indianapolis Center
Wed 04:14:08 PM 37.2089 -81.1678 187° South 192 221 8,000 1,984 Climbing Indianapolis Center
Wed 04:15:10 PM 37.1506 -81.1794 189° South 186 214 10,100 1,887 Climbing Indianapolis Center
Wed 04:16:12 PM 37.0956 -81.1903 189° South 197 227 11,900 1,595 Climbing Indianapolis Center
Wed 04:16:29 PM 37.0783 -81.1928 187° South 201 231 12,200 1,870 Climbing Atlanta Center
Wed 04:17:29 PM 37.0203 -81.2053 190° South 201 231 14,300 1,650 Climbing Atlanta Center
Wed 04:18:00 PM 36.8420 -81.2871 190° South  Level Estimated
Wed 04:18:29 PM 36.9622 -81.2150 188° South 206 237 15,500  Level Atlanta Center
Wed 04:19:29 PM 36.8997 -81.2250 187° South 216 249 16,700 1,200 Climbing Atlanta Center
Wed 04:20:29 PM 36.8356 -81.2378 189° South 229 264 17,900 1,450 Climbing Atlanta Center
Wed 04:21:29 PM 36.7814 -81.2475 188° South 229 264 19,600 1,600 Climbing Atlanta Center
Wed 04:22:29 PM 36.7211 -81.2547 185° South 216 249 21,100 1,300 Climbing Atlanta Center
Wed 04:23:29 PM 36.6631 -81.2672 190° South 216 249 22,200 1,100 Climbing Atlanta Center
Wed 04:24:29 PM 36.6008 -81.2794 189° South 221 254 23,300 1,100 Climbing Atlanta Center
Wed 04:25:29 PM 36.5383 -81.2894 187° South 226 260 24,400 1,200 Climbing Atlanta Center
Wed 04:26:29 PM 36.4761 -81.3019 189° South 226 260 25,700 800 Climbing Atlanta Center
Wed 04:27:29 PM 36.4200 -81.3142 190° South 226 260 26,000 150 Climbing Atlanta Center
Wed 04:28:29 PM 36.3475 -81.3269 188° South 247 284 26,000  Level Atlanta Center
Wed 04:29:29 PM 36.2725 -81.3397 188° South 275 316 26,000  Level Atlanta Center
Wed 04:30:29 PM 36.1958 -81.3553 189° South 275 316 26,000  Level Atlanta Center
Wed 04:31:29 PM 36.1189 -81.3706 189° South 275 316 26,000  Level Atlanta Center
Wed 04:32:29 PM 36.0419 -81.3833 188° South 275 316 26,000  Level Atlanta Center
Wed 04:33:29 PM 35.9653 -81.3989 189° South 275 316 26,000  Level Atlanta Center
Wed 04:34:29 PM 35.8800 -81.4119 187° South 275 316 26,000  Level Atlanta Center
Wed 04:35:29 PM 35.8031 -81.4244 188° South 275 316 26,000  Level Atlanta Center
Wed 04:36:29 PM 35.7261 -81.4397 189° South 275 316 26,000  Level Atlanta Center
Wed 04:37:29 PM 35.6494 -81.4550 189° South 275 316 26,000  Level Atlanta Center
Wed 04:38:29 PM 35.5703 -81.4678 187° South 275 316 26,000  Level Atlanta Center
Wed 04:39:29 PM 35.4914 -81.4803 187° South 286 329 26,000  Level Atlanta Center
Wed 04:40:29 PM 35.4144 -81.4956 189° South 286 329 26,000  Level Atlanta Center
Wed 04:41:29 PM 35.3353 -81.5031 184° South 291 335 26,000  Level Atlanta Center
Wed 04:42:29 PM 35.2561 -81.5031 180° South 291 335 26,000  Level Atlanta Center
Wed 04:43:29 PM 35.1747 -81.5056 181° South 291 335 26,000  Level Atlanta Center
Wed 04:44:29 PM 35.0953 -81.5028 178° South 291 335 26,000  Level Atlanta Center
Wed 04:45:29 PM 35.0142 -81.5078 183° South 296 341 26,000  Level Atlanta Center
Wed 04:46:29 PM 34.9325 -81.5028 177° South 291 335 26,000  Level Atlanta Center
Wed 04:47:29 PM 34.8492 -81.5053 181° South 291 335 26,000  Level Atlanta Center
Wed 04:48:29 PM 34.7678 -81.5025 178° South 291 335 26,000  Level Atlanta Center
Wed 04:49:29 PM 34.6947 -81.5022 180° South 291 335 26,000  Level Atlanta Center
Wed 04:51:43 PM 34.5111 -81.5167 184° South 290 334 26,000  Level Jacksonville Center
Wed 04:52:43 PM 34.4425 -81.5306 189° South 290 334 26,000  Level Jacksonville Center
Wed 04:53:43 PM 34.3611 -81.5444 188° South 290 334 26,000  Level Jacksonville Center
Wed 04:54:44 PM 34.2822 -81.5606 190° South 295 339 26,000  Level Jacksonville Center
Wed 04:55:43 PM 34.2050 -81.5744 188° South 295 339 26,000  Level Jacksonville Center
Wed 04:56:43 PM 34.1281 -81.5981 194° South 295 339 26,000  Level Jacksonville Center
Wed 04:57:44 PM 34.0492 -81.6194 193° South 295 339 26,000  Level Jacksonville Center
Wed 04:58:43 PM 33.9722 -81.6406 193° South 295 339 26,000  Level Jacksonville Center
Wed 04:59:43 PM 33.8931 -81.6617 192° South 295 339 26,000  Level Jacksonville Center
Wed 05:00:43 PM 33.8161 -81.6803 191° South 295 339 26,000  Level Jacksonville Center
Wed 05:01:44 PM 33.7389 -81.7014 193° South 295 339 26,000  Level Jacksonville Center
Wed 05:02:44 PM 33.6597 -81.7222 192° South 295 339 26,000  Level Jacksonville Center
Wed 05:03:43 PM 33.5828 -81.7458 194° South 295 339 26,000  Level Jacksonville Center
Wed 05:04:43 PM 33.5058 -81.7642 191° South 295 339 26,000  Level Jacksonville Center
Wed 05:05:43 PM 33.4289 -81.7875 194° South 295 339 26,000  Level Jacksonville Center
Wed 05:06:43 PM 33.3517 -81.8083 193° South 295 339 26,000  Level Jacksonville Center
Wed 05:07:43 PM 33.2747 -81.8292 193° South 295 339 26,000  Level Jacksonville Center
Wed 05:08:43 PM 33.1975 -81.8475 191° South 295 339 26,000  Level Jacksonville Center
Wed 05:09:43 PM 33.1206 -81.8708 194° South 295 339 26,000  Level Jacksonville Center
Wed 05:10:43 PM 33.0456 -81.8889 191° South 290 334 26,000  Level Jacksonville Center
Wed 05:11:44 PM 32.9686 -81.9097 193° South 285 328 26,000  Level Jacksonville Center
Wed 05:12:43 PM 32.8914 -81.9328 194° South 280 322 26,000  Level Jacksonville Center
Wed 05:13:43 PM 32.8164 -81.9508 191° South 280 322 26,000  Level Jacksonville Center
Wed 05:14:43 PM 32.7414 -81.9714 193° South 280 322 26,000  Level Jacksonville Center
Wed 05:15:43 PM 32.6581 -81.9969 194° South 280 322 26,000  Level Jacksonville Center
Wed 05:16:43 PM 32.5894 -82.0147 192° South 280 322 26,000  Level Jacksonville Center
Wed 05:17:43 PM 32.5103 -82.0328 191° South 280 322 26,000  Level Jacksonville Center
Wed 05:18:43 PM 32.4331 -82.0533 193° South 280 322 26,000  Level Jacksonville Center
Wed 05:19:43 PM 32.3539 -82.0639 186° South 285 328 26,000  Level Jacksonville Center
Wed 05:20:43 PM 32.2661 -82.0744 186° South 294 338 26,000  Level Jacksonville Center
Wed 05:21:43 PM 32.1889 -82.0825 185° South 294 338 26,000  Level Jacksonville Center
Wed 05:22:43 PM 32.1158 -82.0881 184° South 294 338 26,000  Level Jacksonville Center
Wed 05:23:43 PM 32.0283 -82.1011 187° South 288 331 26,000  Level Jacksonville Center
Wed 05:24:44 PM 31.9575 -82.1064 184° South 297 342 26,000  Level Jacksonville Center
Wed 05:25:43 PM 31.8678 -82.1172 186° South 291 335 26,000  Level Jacksonville Center
Wed 05:26:43 PM 31.7906 -82.1250 185° South 291 335 26,000  Level Jacksonville Center
Wed 05:27:44 PM 31.7175 -82.1331 185° South 291 335 26,000  Level Jacksonville Center
Wed 05:28:44 PM 31.6278 -82.1436 186° South 291 335 26,000  Level Jacksonville Center
Wed 05:29:44 PM 31.5567 -82.1514 185° South 291 335 26,000  Level Jacksonville Center
Wed 05:30:43 PM 31.4775 -82.1617 186° South 291 335 26,000  Level Jacksonville Center
Wed 05:31:43 PM 31.3942 -82.1747 188° South 291 335 26,000  Level Jacksonville Center
Wed 05:32:44 PM 31.3147 -82.1775 182° South 291 335 26,000  Level Jacksonville Center
Wed 05:33:44 PM 31.2333 -82.1881 186° South 291 335 26,000  Level Jacksonville Center
Wed 05:34:43 PM 31.1519 -82.1958 185° South 291 335 26,000  Level Jacksonville Center
Wed 05:35:43 PM 31.0728 -82.2036 185° South 291 335 26,000  Level Jacksonville Center
Wed 05:36:44 PM 30.9933 -82.2117 185° South 291 335 26,000  Level Jacksonville Center
Wed 05:37:43 PM 30.9142 -82.2194 185° South 291 335 26,000  Level Jacksonville Center
Wed 05:38:43 PM 30.8347 -82.2297 186° South 291 335 26,000  Level Jacksonville Center
Wed 05:39:43 PM 30.7556 -82.2375 185° South 291 335 26,000  Level Jacksonville Center
Wed 05:40:43 PM 30.6783 -82.2478 187° South 291 335 26,000  Level Jacksonville Center
Wed 05:41:43 PM 30.5969 -82.2531 183° South 291 335 26,000  Level Jacksonville Center
Wed 05:42:44 PM 30.5133 -82.2608 185° South 291 335 26,000  Level Jacksonville Center
Wed 05:43:43 PM 30.4342 -82.2686 185° South 291 335 26,000 -555 Level Jacksonville Center
Wed 05:44:43 PM 30.3528 -82.2789 186° South 296 341 24,900 -950 Descending Jacksonville Center
Wed 05:45:43 PM 30.2692 -82.2864 184° South 301 346 24,100 -850 Descending Jacksonville Center
Wed 05:46:43 PM 30.1858 -82.2942 185° South 307 353 23,200 -900 Descending Jacksonville Center
Wed 05:47:43 PM 30.1003 -82.3044 186° South 313 360 22,300 -850 Descending Jacksonville Center
Wed 05:48:43 PM 30.0231 -82.3144 186° South 313 360 21,500 -750 Descending Jacksonville Center
Wed 05:49:43 PM 29.9375 -82.3222 185° South 313 360 20,800 -750 Descending Jacksonville Center
Wed 05:50:43 PM 29.8519 -82.3322 186° South 313 360 20,000 -1,041 Descending Jacksonville Center
Wed 05:51:44 PM 29.7558 -82.3400 184° South 313 360 18,700 -1,100 Descending Jacksonville Center
Wed 05:52:43 PM 29.6683 -82.3500 186° South 318 366 17,800 -807 Descending Jacksonville Center
Wed 05:53:43 PM 29.5806 -82.3578 184° South 318 366 17,100 -347 Descending Jacksonville Center
Wed 05:54:44 PM 29.5011 -82.3414 170° South 303 349 17,100  Level Jacksonville Center
Wed 05:55:43 PM 29.4219 -82.3253 170° South 298 343 17,100  Level Jacksonville Center
Wed 05:56:44 PM 29.3425 -82.3064 168° South 298 343 17,100 -149 Level Jacksonville Center
Wed 05:57:44 PM 29.2608 -82.2928 172° South 293 337 16,800 -800 Descending Jacksonville Center
Wed 05:58:44 PM 29.1817 -82.2767 170° South 293 337 15,500 -1,311 Descending Jacksonville Center
Wed 05:59:43 PM 29.0958 -82.2628 172° South 298 343 14,200 -1,311 Descending Jacksonville Center
Wed 06:00:43 PM 29.0103 -82.2611 179° South 298 343 12,900 -1,240 Descending Jacksonville Center
Wed 06:01:44 PM 28.9331 -82.2614 180° South 298 343 11,700 -900 Descending Jacksonville Center
Wed 06:02:43 PM 28.8539 -82.2619 180° South 303 349 11,100 -231 Descending Jacksonville Center
Wed 06:04:46 PM 28.7000 -82.2500 176° South 276 318 11,000 -63 Descending Tampa TRACON
Wed 06:05:52 PM 28.6167 -82.2833 199° South 278 320 10,900 -550 Descending Tampa TRACON
Wed 06:06:46 PM 28.5833 -82.3667 246° West 291 335 9,900 -947 Descending Tampa TRACON
Wed 06:07:46 PM 28.5667 -82.4333 254° West 278 320 9,100 -955 Descending Tampa TRACON
Wed 06:08:58 PM 28.5167 -82.5333 240° Southwest 277 319 7,800 -1,000 Descending Tampa TRACON
Wed 06:09:58 PM 28.4667 -82.6000 230° Southwest 272 313 6,900 -1,000 Descending Tampa TRACON
Wed 06:10:46 PM 28.4333 -82.6500 233° Southwest 270 311 6,000 -1,111 Descending Tampa TRACON
Wed 06:11:46 PM 28.3500 -82.6667 190° South 255 293 4,900 -1,050 Descending Tampa TRACON
Wed 06:12:46 PM 28.2833 -82.6833 192° South 242 278 3,900 -1,000 Descending Tampa TRACON
Wed 06:13:46 PM 28.2167 -82.6833 180° South 240 276 2,900 -700 Descending Tampa TRACON
Wed 06:14:46 PM 28.1500 -82.6833 180° South 236 272 2,500 -136 Descending Tampa TRACON
Wed 06:15:58 PM 28.0833 -82.7000 192° South 238 274 2,600 -227 Climbing Tampa TRACON
Wed 06:16:58 PM 28.0167 -82.7000 180° South 203 234 2,000 -626 Descending Tampa TRACON
Wed 06:17:53 PM 27.9833 -82.7000 180° South 138 159 1,400 -730 Descending Tampa TRACON
Wed 06:18:53 PM 27.9500 -82.7000 180° South 116 133 600 -800 Descending Tampa TRACON
Wed 06:20:00 PM 27.9100 -82.6874 180° South  Level Estimated
Wed 06:27:00 PM 27.9100 -82.6874 180° South  Level Estimated
Wed 06:28:00 PM 27.9100 -82.6874 180° South  Level Estimated

Login

Don't have an account? Register now (free) for customized features, flight alerts, and more!